createdAt,value
2023-05-22T00:00:40.451Z,101256.41
2023-05-22T00:03:43.943Z,101262.31
2023-05-22T00:06:50.827Z,101261.13
2023-05-22T00:09:55.152Z,101261.13
2023-05-22T00:12:58.698Z,101254.47
2023-05-22T00:16:03.454Z,101253.94
2023-05-22T00:19:07.261Z,101254.09
2023-05-22T00:22:10.974Z,101248.00
2023-05-22T00:25:14.394Z,101249.59
2023-05-22T00:28:17.880Z,101243.47
2023-05-22T00:31:23.710Z,101238.75
2023-05-22T00:34:27.136Z,101241.03
2023-05-22T00:37:31.094Z,101239.69
2023-05-22T00:40:34.586Z,101239.69
2023-05-22T00:43:40.655Z,101239.09
2023-05-22T00:46:45.675Z,101241.84
2023-05-22T00:49:49.430Z,101240.13
2023-05-22T00:52:52.648Z,101235.59
2023-05-22T00:55:57.027Z,101227.81
2023-05-22T00:59:01.031Z,101232.44
2023-05-22T01:02:06.400Z,101230.41
2023-05-22T01:05:13.414Z,101229.69
2023-05-22T01:08:17.213Z,101226.44
2023-05-22T01:11:28.173Z,101232.31
2023-05-22T01:14:42.358Z,101224.25
2023-05-22T01:18:11.301Z,101231.78
2023-05-22T01:21:23.126Z,101217.38
2023-05-22T01:24:54.670Z,101221.81
2023-05-22T01:28:13.135Z,101224.22
2023-05-22T01:31:21.185Z,101210.22
2023-05-22T01:34:28.246Z,101216.91
2023-05-22T01:37:32.701Z,101221.38
2023-05-22T01:40:37.082Z,101215.00
2023-05-22T01:43:41.299Z,101215.84
2023-05-22T01:46:46.139Z,101219.72
2023-05-22T01:49:49.634Z,101216.69
2023-05-22T01:53:09.239Z,101215.22
2023-05-22T01:56:18.109Z,101220.69
2023-05-22T01:59:30.958Z,101229.00
2023-05-22T02:02:40.002Z,101221.94
2023-05-22T02:06:07.036Z,101213.16
2023-05-22T02:09:12.034Z,101216.50
2023-05-22T02:12:17.121Z,101217.91
2023-05-22T02:15:21.635Z,101218.78
2023-05-22T02:18:30.959Z,101209.59
2023-05-22T02:21:37.070Z,101212.97
2023-05-22T02:24:42.166Z,101216.03
2023-05-22T02:27:49.565Z,101212.16
2023-05-22T02:30:53.204Z,101211.31
2023-05-22T02:33:57.938Z,101210.09
2023-05-22T02:37:03.729Z,101221.88
2023-05-22T02:40:10.218Z,101213.81
2023-05-22T02:43:13.749Z,101211.19
2023-05-22T02:46:17.303Z,101215.78
2023-05-22T02:49:22.253Z,101209.38
2023-05-22T02:52:25.873Z,101208.28
2023-05-22T02:55:32.262Z,101213.81
2023-05-22T02:58:35.960Z,101207.47
2023-05-22T03:01:39.837Z,101205.09
2023-05-22T03:04:47.165Z,101208.84
2023-05-22T03:07:52.910Z,101204.97
2023-05-22T03:10:58.925Z,101205.53
2023-05-22T03:14:02.363Z,101199.13
2023-05-22T03:17:06.899Z,101195.25
2023-05-22T03:20:18.980Z,101192.78
2023-05-22T03:23:25.208Z,101188.75
2023-05-22T03:26:29.529Z,101189.56
2023-05-22T03:29:33.987Z,101185.97
2023-05-22T03:32:38.382Z,101186.53
2023-05-22T03:35:44.654Z,101195.94
2023-05-22T03:38:49.439Z,101186.53
2023-05-22T03:41:53.095Z,101192.34
2023-05-22T03:44:57.205Z,101192.47
2023-05-22T03:48:02.121Z,101191.50
2023-05-22T03:51:08.581Z,101191.91
2023-05-22T03:54:12.190Z,101188.56
2023-05-22T03:57:20.063Z,101195.38
2023-05-22T04:00:25.788Z,101194.66
2023-05-22T04:03:30.384Z,101184.66
2023-05-22T04:06:43.019Z,101182.88
2023-05-22T04:09:49.274Z,101184.97
2023-05-22T04:12:53.084Z,101184.69
2023-05-22T04:15:56.893Z,101183.31
2023-05-22T04:19:01.572Z,101185.38
2023-05-22T04:22:07.919Z,101183.34
2023-05-22T04:25:11.657Z,101184.16
2023-05-22T04:28:17.676Z,101181.13
2023-05-22T04:31:23.538Z,101185.56
2023-05-22T04:34:28.665Z,101189.72
2023-05-22T04:37:45.614Z,101184.47
2023-05-22T04:40:53.387Z,101187.78
2023-05-22T04:43:56.592Z,101180.41
2023-05-22T04:47:01.878Z,101182.50
2023-05-22T04:50:05.906Z,101179.72
2023-05-22T04:53:12.646Z,101187.22
2023-05-22T04:56:36.763Z,101185.25
2023-05-22T04:59:59.554Z,101183.31
2023-05-22T05:03:03.451Z,101184.13
2023-05-22T05:06:08.443Z,101189.28
2023-05-22T05:09:15.913Z,101179.72
2023-05-22T05:12:19.671Z,101185.81
2023-05-22T05:15:24.989Z,101180.81
2023-05-22T05:18:53.661Z,101181.41
2023-05-22T05:22:09.580Z,101177.63
2023-05-22T05:25:46.744Z,101180.94
2023-05-22T05:28:51.466Z,101186.22
2023-05-22T05:31:56.047Z,101185.66
2023-05-22T05:35:11.890Z,101184.53
2023-05-22T05:38:25.411Z,101192.59
2023-05-22T05:41:31.348Z,101200.78
2023-05-22T05:44:39.683Z,101194.13
2023-05-22T05:47:44.057Z,101199.94
2023-05-22T05:50:49.151Z,101202.56
2023-05-22T05:53:52.402Z,101199.63
2023-05-22T05:56:59.354Z,101200.38
2023-05-22T06:00:05.319Z,101197.66
2023-05-22T06:03:19.435Z,101192.72
2023-05-22T06:06:35.789Z,101189.41
2023-05-22T06:09:51.707Z,101195.41
2023-05-22T06:13:23.026Z,101192.66
2023-05-22T06:16:30.025Z,101189.19
2023-05-22T06:19:37.471Z,101197.03
2023-05-22T06:22:41.164Z,101184.22
2023-05-22T06:25:45.341Z,101187.44
2023-05-22T06:28:59.796Z,101194.09
2023-05-22T06:32:13.692Z,101188.19
2023-05-22T06:35:20.861Z,101192.41
2023-05-22T06:38:27.765Z,101187.66
2023-05-22T06:41:33.693Z,101188.09
2023-05-22T06:44:42.298Z,101190.63
2023-05-22T06:47:46.205Z,101192.41
2023-05-22T06:51:16.666Z,101188.88
2023-05-22T06:54:52.686Z,101187.09
2023-05-22T06:58:24.718Z,101182.13
2023-05-22T07:01:30.417Z,101187.47
2023-05-22T07:04:43.985Z,101178.47
2023-05-22T07:07:51.107Z,101185.41
2023-05-22T07:11:01.062Z,101178.91
2023-05-22T07:14:05.022Z,101175.34
2023-05-22T07:17:12.603Z,101178.13
2023-05-22T07:20:21.416Z,101174.09
2023-05-22T07:23:36.961Z,101183.41
2023-05-22T07:26:46.826Z,101180.25
2023-05-22T07:29:52.215Z,101189.59
2023-05-22T07:32:57.987Z,101180.63
2023-05-22T07:36:01.925Z,101175.88
2023-05-22T07:39:07.513Z,101176.53
2023-05-22T07:42:21.836Z,101179.69
2023-05-22T07:45:35.051Z,101181.03
2023-05-22T07:48:45.173Z,101176.03
2023-05-22T07:51:49.668Z,101169.88
2023-05-22T07:54:54.675Z,101171.03
2023-05-22T07:58:04.293Z,101173.16
2023-05-22T08:01:19.551Z,101165.59
2023-05-22T08:04:24.555Z,101167.56
2023-05-22T08:07:30.653Z,101168.81
2023-05-22T08:10:47.142Z,101167.78
2023-05-22T08:14:03.305Z,101165.34
2023-05-22T08:17:10.196Z,101167.28
2023-05-22T08:20:17.504Z,101169.38
2023-05-22T08:23:21.258Z,101175.59
2023-05-22T08:26:50.161Z,101165.16
2023-05-22T08:29:56.820Z,101155.78
2023-05-22T08:33:05.107Z,101159.09
2023-05-22T08:36:14.481Z,101147.16
2023-05-22T08:39:20.954Z,101153.84
2023-05-22T08:42:24.539Z,101150.00
2023-05-22T08:45:30.080Z,101148.84
2023-05-22T08:48:34.633Z,101143.22
2023-05-22T08:51:43.767Z,101149.00
2023-05-22T08:54:55.388Z,101149.28
2023-05-22T08:58:01.636Z,101138.00
2023-05-22T09:01:21.529Z,101132.66
2023-05-22T09:04:29.838Z,101132.13
2023-05-22T09:07:41.409Z,101127.31
2023-05-22T09:10:47.494Z,101123.94
2023-05-22T09:13:52.398Z,101118.56
2023-05-22T09:16:59.601Z,101123.94
2023-05-22T09:20:08.720Z,101115.81
2023-05-22T09:23:15.623Z,101119.38
2023-05-22T09:26:20.688Z,101113.41
2023-05-22T09:29:27.640Z,101110.50
2023-05-22T09:32:31.931Z,101114.13
2023-05-22T09:35:39.663Z,101115.00
2023-05-22T09:38:47.994Z,101111.81
2023-05-22T09:41:54.365Z,101114.41
2023-05-22T09:44:59.217Z,101109.09
2023-05-22T09:48:02.981Z,101109.84
2023-05-22T09:51:21.561Z,101105.03
2023-05-22T09:54:43.685Z,101101.88
2023-05-22T09:57:52.001Z,101109.19
2023-05-22T10:00:57.743Z,101098.78
2023-05-22T10:04:03.925Z,101096.53
2023-05-22T10:07:08.051Z,101098.47
2023-05-22T10:10:15.875Z,101090.44
2023-05-22T10:13:20.944Z,101100.03
2023-05-22T10:16:25.913Z,101088.63
2023-05-22T10:19:31.409Z,101084.47
2023-05-22T10:22:36.785Z,101086.94
2023-05-22T10:25:42.193Z,101082.28
2023-05-22T10:28:55.740Z,101081.81
2023-05-22T10:32:11.028Z,101082.03
2023-05-22T10:35:33.844Z,101079.84
2023-05-22T10:39:07.569Z,101070.22
2023-05-22T10:42:31.765Z,101065.38
2023-05-22T10:45:37.829Z,101052.56
2023-05-22T10:48:51.784Z,101055.69
2023-05-22T10:52:10.444Z,101061.84
2023-05-22T10:55:14.968Z,101058.06
2023-05-22T10:58:27.467Z,101044.91
2023-05-22T11:01:40.538Z,101052.09
2023-05-22T11:04:52.361Z,101048.38
2023-05-22T11:08:37.427Z,101039.78
2023-05-22T11:11:43.506Z,101038.03
2023-05-22T11:14:56.925Z,101038.91
2023-05-22T11:18:15.690Z,101037.06
2023-05-22T11:21:25.780Z,101035.44
2023-05-22T11:24:37.389Z,101034.59
2023-05-22T11:27:59.444Z,101031.03
2023-05-22T11:31:06.994Z,101026.53
2023-05-22T11:34:18.569Z,101019.56
2023-05-22T11:37:25.215Z,101027.41
2023-05-22T11:40:32.172Z,101021.84
2023-05-22T11:43:39.078Z,101019.59
2023-05-22T11:46:56.449Z,101014.44
2023-05-22T11:50:40.402Z,101019.19
2023-05-22T11:53:48.024Z,101007.25
2023-05-22T11:56:57.165Z,101001.94
2023-05-22T12:00:00.994Z,101004.78
2023-05-22T12:03:10.948Z,101003.16
2023-05-22T12:06:21.536Z,101011.78
2023-05-22T12:09:30.939Z,101002.75
2023-05-22T12:12:41.694Z,100996.78
2023-05-22T12:16:00.745Z,100999.84
2023-05-22T12:19:18.910Z,100992.88
2023-05-22T12:22:35.050Z,100991.59
2023-05-22T12:25:38.325Z,100982.88
2023-05-22T12:28:47.744Z,100983.69
2023-05-22T12:32:09.503Z,100984.97
2023-05-22T12:35:18.345Z,100989.41
2023-05-22T12:38:34.743Z,100990.16
2023-05-22T12:41:38.837Z,100996.91
2023-05-22T12:44:58.265Z,100984.13
2023-05-22T12:48:19.282Z,100979.56
2023-05-22T12:51:32.091Z,100977.69
2023-05-22T12:54:36.946Z,100985.50
2023-05-22T12:57:43.453Z,100973.47
2023-05-22T13:00:47.403Z,100975.75
2023-05-22T13:03:55.135Z,100980.59
2023-05-22T13:07:00.012Z,100976.88
2023-05-22T13:10:17.580Z,100973.03
2023-05-22T13:13:20.931Z,100973.63
2023-05-22T13:16:24.448Z,100969.91
2023-05-22T13:19:28.130Z,100968.03
2023-05-22T13:22:34.180Z,100971.63
2023-05-22T13:25:46.009Z,100966.34
2023-05-22T13:28:49.412Z,100967.72
2023-05-22T13:31:53.095Z,100953.56
2023-05-22T13:34:59.238Z,100954.13
2023-05-22T13:38:04.213Z,100954.06
2023-05-22T13:41:07.824Z,100951.25
2023-05-22T13:44:11.469Z,100950.56
2023-05-22T13:47:17.650Z,100951.31
2023-05-22T13:50:21.162Z,100941.09
2023-05-22T13:53:29.056Z,100937.31
2023-05-22T13:56:34.499Z,100932.53
2023-05-22T13:59:46.378Z,100939.56
2023-05-22T14:02:50.113Z,100931.88
2023-05-22T14:05:53.757Z,100928.28
2023-05-22T14:09:00.318Z,100921.69
2023-05-22T14:12:08.777Z,100923.56
2023-05-22T14:15:17.896Z,100925.38
2023-05-22T14:18:23.745Z,100918.69
2023-05-22T14:21:27.263Z,100922.59
2023-05-22T14:24:33.063Z,100909.81
2023-05-22T14:27:36.388Z,100910.34
2023-05-22T14:30:40.933Z,100909.53
2023-05-22T14:33:45.462Z,100916.63
2023-05-22T14:36:48.782Z,100904.94
2023-05-22T14:39:53.823Z,100909.25
2023-05-22T14:43:08.168Z,100903.00
2023-05-22T14:46:12.578Z,100901.31
2023-05-22T14:49:16.647Z,100900.28
2023-05-22T14:52:20.045Z,100896.53
2023-05-22T14:55:28.367Z,100898.25
2023-05-22T14:58:31.833Z,100885.31
2023-05-22T15:01:37.151Z,100890.03
2023-05-22T15:04:40.968Z,100882.78
2023-05-22T15:07:48.399Z,100886.09
2023-05-22T15:10:55.290Z,100890.97
2023-05-22T15:14:01.305Z,100877.94
2023-05-22T15:17:04.847Z,100877.25
2023-05-22T15:20:12.876Z,100872.84
2023-05-22T15:23:16.488Z,100859.81
2023-05-22T15:26:38.520Z,100854.72
2023-05-22T15:29:47.019Z,100852.97
2023-05-22T15:32:50.608Z,100852.00
2023-05-22T15:35:54.080Z,100838.94
2023-05-22T15:38:57.435Z,100852.00
2023-05-22T15:42:06.825Z,100830.53
2023-05-22T15:45:13.828Z,100832.03
2023-05-22T15:48:21.960Z,100836.66
2023-05-22T15:51:27.708Z,100834.19
2023-05-22T15:54:33.190Z,100824.34
2023-05-22T15:57:41.213Z,100808.19
2023-05-22T16:00:49.287Z,100813.50
2023-05-22T16:03:57.418Z,100812.84
2023-05-22T16:07:01.118Z,100810.16
2023-05-22T16:10:09.429Z,100805.69
2023-05-22T16:13:15.082Z,100805.13
2023-05-22T16:16:18.813Z,100810.06
2023-05-22T16:19:36.395Z,100803.22
2023-05-22T16:22:48.177Z,100804.56
2023-05-22T16:25:54.514Z,100808.44
2023-05-22T16:29:07.693Z,100797.91
2023-05-22T16:32:11.456Z,100797.38
2023-05-22T16:35:19.083Z,100792.44
2023-05-22T16:38:24.160Z,100802.13
2023-05-22T16:41:30.052Z,100807.09
2023-05-22T16:44:40.581Z,100803.41
2023-05-22T16:47:44.313Z,100801.34
2023-05-22T16:50:50.603Z,100802.19
2023-05-22T16:53:57.148Z,100790.69
2023-05-22T16:57:15.074Z,100793.56
2023-05-22T17:00:23.606Z,100789.03
2023-05-22T17:03:27.213Z,100793.56
2023-05-22T17:06:31.884Z,100799.69
2023-05-22T17:09:37.690Z,100800.28
2023-05-22T17:12:43.877Z,100805.84
2023-05-22T17:15:54.294Z,100805.84
2023-05-22T17:18:58.038Z,100802.75
2023-05-22T17:22:01.457Z,100795.13
2023-05-22T17:25:09.659Z,100800.25
2023-05-22T17:28:20.988Z,100797.59
2023-05-22T17:31:25.982Z,100801.28
2023-05-22T17:34:32.331Z,100798.41
2023-05-22T17:37:41.680Z,100799.56
2023-05-22T17:40:47.681Z,100800.72
2023-05-22T17:43:51.676Z,100796.44
2023-05-22T17:46:58.812Z,100786.34
2023-05-22T17:50:03.217Z,100784.03
2023-05-22T17:53:06.769Z,100787.00
2023-05-22T17:56:10.284Z,100781.63
2023-05-22T17:59:13.468Z,100778.72
2023-05-22T18:02:19.063Z,100779.94
2023-05-22T18:05:24.696Z,100774.94
2023-05-22T18:08:28.520Z,100786.34
2023-05-22T18:12:02.230Z,100780.13
2023-05-22T18:15:17.300Z,100772.28
2023-05-22T18:19:06.175Z,100766.94
2023-05-22T18:23:15.795Z,100762.75
2023-05-22T18:32:53.290Z,100762.00
2023-05-22T18:53:06.375Z,100772.06
2023-05-22T19:02:59.320Z,100776.03
2023-05-22T19:18:12.830Z,100786.66
2023-05-22T19:36:47.713Z,100791.41
2023-05-22T19:50:03.730Z,100800.25
2023-05-22T19:53:19.718Z,100797.31
2023-05-22T19:56:40.256Z,100797.13
2023-05-22T19:59:52.334Z,100798.09
2023-05-22T20:13:11.403Z,100800.97
2023-05-22T20:22:18.325Z,100804.66
2023-05-22T20:25:26.105Z,100806.38
2023-05-22T20:28:33.335Z,100801.09
2023-05-22T20:36:26.937Z,100806.91
2023-05-22T20:39:50.446Z,100816.69
2023-05-22T20:43:15.694Z,100801.81
2023-05-22T20:46:47.909Z,100804.47
2023-05-22T20:50:28.705Z,100807.63
2023-05-22T20:54:32.016Z,100799.84
2023-05-22T20:58:41.787Z,100801.19
2023-05-22T21:13:04.800Z,100801.84
2023-05-22T21:27:33.826Z,100795.06
2023-05-22T21:31:54.557Z,100798.16
2023-05-22T21:41:38.987Z,100794.47
2023-05-22T21:46:12.094Z,100800.09
2023-05-22T22:00:12.944Z,100794.75
2023-05-22T22:04:10.495Z,100795.28
2023-05-22T22:08:02.368Z,100793.41
2023-05-22T22:11:53.184Z,100789.09
2023-05-22T22:21:08.866Z,100781.78
2023-05-22T22:25:58.885Z,100778.78
2023-05-22T22:35:21.559Z,100769.38
2023-05-22T22:38:53.271Z,100765.72
2023-05-22T22:42:21.215Z,100754.78
2023-05-22T22:45:51.783Z,100754.88
2023-05-22T22:49:43.923Z,100755.94
2023-05-22T22:53:00.595Z,100758.44
2023-05-22T22:56:20.220Z,100748.16
2023-05-22T23:04:36.259Z,100744.69
2023-05-22T23:07:57.372Z,100739.06
2023-05-22T23:12:27.468Z,100723.25
2023-05-22T23:15:51.361Z,100728.50
2023-05-22T23:19:31.787Z,100725.09
2023-05-22T23:23:04.725Z,100719.59
2023-05-22T23:30:20.483Z,100712.03
2023-05-22T23:33:28.889Z,100710.31
2023-05-22T23:40:42.950Z,100693.50
2023-05-22T23:44:03.654Z,100692.03
2023-05-22T23:47:31.230Z,100687.53
2023-05-22T23:55:33.959Z,100675.63
2023-05-22T23:58:49.398Z,100668.06
